sensor_id;sensor_type;location;lat;lon;timestamp;P1;durP1;ratioP1;P2;durP2;ratioP2
45114;SDS011;30877;43.706;10.780;2023-02-14T00:01:50;11.02;;;7.60;;
45114;SDS011;30877;43.706;10.780;2023-02-14T00:04:18;11.10;;;8.27;;
45114;SDS011;30877;43.706;10.780;2023-02-14T00:06:47;11.40;;;8.23;;
45114;SDS011;30877;43.706;10.780;2023-02-14T00:09:15;11.55;;;8.40;;
45114;SDS011;30877;43.706;10.780;2023-02-14T00:11:44;12.70;;;8.85;;
45114;SDS011;30877;43.706;10.780;2023-02-14T00:14:13;14.38;;;9.32;;
45114;SDS011;30877;43.706;10.780;2023-02-14T00:17:01;15.85;;;9.98;;
45114;SDS011;30877;43.706;10.780;2023-02-14T00:19:30;12.73;;;9.43;;
45114;SDS011;30877;43.706;10.780;2023-02-14T00:22:00;14.40;;;10.00;;
45114;SDS011;30877;43.706;10.780;2023-02-14T00:24:29;15.23;;;10.30;;
45114;SDS011;30877;43.706;10.780;2023-02-14T00:26:57;17.67;;;10.52;;
45114;SDS011;30877;43.706;10.780;2023-02-14T00:29:27;15.85;;;11.30;;
45114;SDS011;30877;43.706;10.780;2023-02-14T00:31:57;17.73;;;10.68;;
45114;SDS011;30877;43.706;10.780;2023-02-14T00:34:27;16.85;;;11.32;;
45114;SDS011;30877;43.706;10.780;2023-02-14T00:36:57;14.43;;;10.77;;
45114;SDS011;30877;43.706;10.780;2023-02-14T00:39:26;18.05;;;9.70;;
45114;SDS011;30877;43.706;10.780;2023-02-14T00:41:54;12.32;;;8.15;;
45114;SDS011;30877;43.706;10.780;2023-02-14T00:44:22;13.45;;;8.70;;
45114;SDS011;30877;43.706;10.780;2023-02-14T00:46:50;10.88;;;6.90;;
45114;SDS011;30877;43.706;10.780;2023-02-14T00:49:18;13.05;;;8.25;;
45114;SDS011;30877;43.706;10.780;2023-02-14T00:51:48;16.95;;;10.18;;
45114;SDS011;30877;43.706;10.780;2023-02-14T00:54:16;11.40;;;8.43;;
45114;SDS011;30877;43.706;10.780;2023-02-14T00:56:44;13.75;;;8.05;;
45114;SDS011;30877;43.706;10.780;2023-02-14T00:59:12;10.75;;;6.85;;
45114;SDS011;30877;43.706;10.780;2023-02-14T01:01:41;11.27;;;7.00;;
45114;SDS011;30877;43.706;10.780;2023-02-14T01:04:09;9.40;;;6.93;;
45114;SDS011;30877;43.706;10.780;2023-02-14T01:06:37;10.25;;;7.32;;
45114;SDS011;30877;43.706;10.780;2023-02-14T01:09:07;10.77;;;6.97;;
45114;SDS011;30877;43.706;10.780;2023-02-14T01:11:35;9.23;;;6.93;;
45114;SDS011;30877;43.706;10.780;2023-02-14T01:14:03;8.50;;;6.28;;
45114;SDS011;30877;43.706;10.780;2023-02-14T01:16:31;11.40;;;6.90;;
45114;SDS011;30877;43.706;10.780;2023-02-14T01:18:59;9.20;;;6.15;;
45114;SDS011;30877;43.706;10.780;2023-02-14T01:21:28;9.93;;;7.20;;
45114;SDS011;30877;43.706;10.780;2023-02-14T01:23:58;8.90;;;6.35;;
45114;SDS011;30877;43.706;10.780;2023-02-14T01:26:29;8.85;;;6.28;;
45114;SDS011;30877;43.706;10.780;2023-02-14T01:28:59;9.05;;;6.03;;
45114;SDS011;30877;43.706;10.780;2023-02-14T01:31:28;8.80;;;6.20;;
45114;SDS011;30877;43.706;10.780;2023-02-14T01:33:58;9.80;;;6.68;;
45114;SDS011;30877;43.706;10.780;2023-02-14T01:36:28;10.93;;;6.60;;
45114;SDS011;30877;43.706;10.780;2023-02-14T01:38:58;9.32;;;6.07;;
45114;SDS011;30877;43.706;10.780;2023-02-14T01:41:31;9.10;;;6.18;;
45114;SDS011;30877;43.706;10.780;2023-02-14T01:44:01;7.00;;;5.50;;
45114;SDS011;30877;43.706;10.780;2023-02-14T01:46:31;7.72;;;5.88;;
45114;SDS011;30877;43.706;10.780;2023-02-14T01:49:00;9.15;;;6.57;;
45114;SDS011;30877;43.706;10.780;2023-02-14T01:51:32;10.77;;;6.65;;
45114;SDS011;30877;43.706;10.780;2023-02-14T01:54:06;9.57;;;7.30;;
45114;SDS011;30877;43.706;10.780;2023-02-14T01:56:37;9.90;;;7.63;;
45114;SDS011;30877;43.706;10.780;2023-02-14T01:59:13;10.00;;;7.10;;
45114;SDS011;30877;43.706;10.780;2023-02-14T02:01:44;12.43;;;7.95;;
45114;SDS011;30877;43.706;10.780;2023-02-14T02:04:16;10.43;;;7.88;;
45114;SDS011;30877;43.706;10.780;2023-02-14T02:06:50;10.57;;;7.32;;
45114;SDS011;30877;43.706;10.780;2023-02-14T02:09:23;10.98;;;7.70;;
45114;SDS011;30877;43.706;10.780;2023-02-14T02:11:56;15.73;;;8.70;;
45114;SDS011;30877;43.706;10.780;2023-02-14T02:14:24;10.52;;;7.47;;
45114;SDS011;30877;43.706;10.780;2023-02-14T02:16:57;11.07;;;8.13;;
45114;SDS011;30877;43.706;10.780;2023-02-14T02:19:56;9.75;;;7.13;;
45114;SDS011;30877;43.706;10.780;2023-02-14T02:23:07;11.20;;;8.07;;
45114;SDS011;30877;43.706;10.780;2023-02-14T02:26:21;11.07;;;8.18;;
45114;SDS011;30877;43.706;10.780;2023-02-14T02:29:21;10.75;;;7.43;;
45114;SDS011;30877;43.706;10.780;2023-02-14T02:32:12;13.85;;;7.90;;
45114;SDS011;30877;43.706;10.780;2023-02-14T02:35:21;12.50;;;7.50;;
45114;SDS011;30877;43.706;10.780;2023-02-14T02:38:00;11.80;;;7.93;;
45114;SDS011;30877;43.706;10.780;2023-02-14T02:41:00;11.48;;;7.95;;
45114;SDS011;30877;43.706;10.780;2023-02-14T02:43:34;11.60;;;7.47;;
45114;SDS011;30877;43.706;10.780;2023-02-14T02:46:11;9.90;;;7.07;;
45114;SDS011;30877;43.706;10.780;2023-02-14T02:49:13;12.02;;;7.70;;
45114;SDS011;30877;43.706;10.780;2023-02-14T02:52:09;8.80;;;7.30;;
45114;SDS011;30877;43.706;10.780;2023-02-14T02:55:02;11.00;;;7.35;;
45114;SDS011;30877;43.706;10.780;2023-02-14T02:57:34;11.80;;;7.10;;
45114;SDS011;30877;43.706;10.780;2023-02-14T03:00:07;12.40;;;7.97;;
45114;SDS011;30877;43.706;10.780;2023-02-14T03:02:40;11.70;;;7.50;;
45114;SDS011;30877;43.706;10.780;2023-02-14T03:05:30;13.43;;;7.40;;
45114;SDS011;30877;43.706;10.780;2023-02-14T03:08:02;10.27;;;7.28;;
45114;SDS011;30877;43.706;10.780;2023-02-14T03:10:32;12.77;;;7.70;;
45114;SDS011;30877;43.706;10.780;2023-02-14T03:13:08;10.93;;;7.20;;
45114;SDS011;30877;43.706;10.780;2023-02-14T03:15:55;8.95;;;6.78;;
45114;SDS011;30877;43.706;10.780;2023-02-14T03:18:50;9.63;;;7.05;;
45114;SDS011;30877;43.706;10.780;2023-02-14T03:21:31;8.50;;;6.55;;
45114;SDS011;30877;43.706;10.780;2023-02-14T03:24:07;12.60;;;7.30;;
45114;SDS011;30877;43.706;10.780;2023-02-14T03:26:43;8.90;;;6.70;;
45114;SDS011;30877;43.706;10.780;2023-02-14T03:29:18;10.13;;;7.00;;
45114;SDS011;30877;43.706;10.780;2023-02-14T03:31:54;9.40;;;7.15;;
45114;SDS011;30877;43.706;10.780;2023-02-14T03:34:29;8.35;;;5.93;;
45114;SDS011;30877;43.706;10.780;2023-02-14T03:37:02;9.07;;;5.57;;
45114;SDS011;30877;43.706;10.780;2023-02-14T03:39:38;11.05;;;6.35;;
45114;SDS011;30877;43.706;10.780;2023-02-14T03:42:11;10.73;;;5.77;;
45114;SDS011;30877;43.706;10.780;2023-02-14T03:44:45;8.70;;;5.40;;
45114;SDS011;30877;43.706;10.780;2023-02-14T03:47:15;10.60;;;5.95;;
45114;SDS011;30877;43.706;10.780;2023-02-14T03:49:47;8.25;;;5.72;;
45114;SDS011;30877;43.706;10.780;2023-02-14T03:52:20;9.57;;;6.18;;
45114;SDS011;30877;43.706;10.780;2023-02-14T03:54:50;9.90;;;6.38;;
45114;SDS011;30877;43.706;10.780;2023-02-14T03:57:22;9.10;;;6.03;;
45114;SDS011;30877;43.706;10.780;2023-02-14T03:59:54;7.97;;;5.82;;
45114;SDS011;30877;43.706;10.780;2023-02-14T04:02:24;7.72;;;5.63;;
45114;SDS011;30877;43.706;10.780;2023-02-14T04:04:57;10.25;;;6.85;;
45114;SDS011;30877;43.706;10.780;2023-02-14T04:07:27;8.43;;;6.22;;
45114;SDS011;30877;43.706;10.780;2023-02-14T04:09:57;9.40;;;5.88;;
45114;SDS011;30877;43.706;10.780;2023-02-14T04:12:25;7.63;;;5.60;;
45114;SDS011;30877;43.706;10.780;2023-02-14T04:15:04;8.32;;;5.60;;
45114;SDS011;30877;43.706;10.780;2023-02-14T04:17:32;7.43;;;5.05;;
45114;SDS011;30877;43.706;10.780;2023-02-14T04:20:20;6.65;;;5.15;;
45114;SDS011;30877;43.706;10.780;2023-02-14T04:22:48;9.55;;;5.15;;
45114;SDS011;30877;43.706;10.780;2023-02-14T04:25:19;7.25;;;5.55;;
45114;SDS011;30877;43.706;10.780;2023-02-14T04:27:47;12.05;;;6.38;;
45114;SDS011;30877;43.706;10.780;2023-02-14T04:30:15;10.23;;;6.40;;
45114;SDS011;30877;43.706;10.780;2023-02-14T04:32:44;9.82;;;6.28;;
45114;SDS011;30877;43.706;10.780;2023-02-14T04:35:12;9.05;;;5.88;;
45114;SDS011;30877;43.706;10.780;2023-02-14T04:37:40;8.55;;;5.85;;
45114;SDS011;30877;43.706;10.780;2023-02-14T04:40:09;10.95;;;6.53;;
45114;SDS011;30877;43.706;10.780;2023-02-14T04:42:39;8.73;;;6.22;;
45114;SDS011;30877;43.706;10.780;2023-02-14T04:45:07;8.15;;;5.88;;
45114;SDS011;30877;43.706;10.780;2023-02-14T04:47:35;10.63;;;6.13;;
45114;SDS011;30877;43.706;10.780;2023-02-14T04:50:04;9.57;;;6.40;;
45114;SDS011;30877;43.706;10.780;2023-02-14T04:52:33;9.52;;;6.20;;
45114;SDS011;30877;43.706;10.780;2023-02-14T04:55:01;8.52;;;6.28;;
45114;SDS011;30877;43.706;10.780;2023-02-14T04:57:30;8.93;;;6.32;;
45114;SDS011;30877;43.706;10.780;2023-02-14T04:59:59;9.70;;;6.93;;
45114;SDS011;30877;43.706;10.780;2023-02-14T05:02:27;10.43;;;6.13;;
45114;SDS011;30877;43.706;10.780;2023-02-14T05:04:55;9.52;;;6.65;;
45114;SDS011;30877;43.706;10.780;2023-02-14T05:07:23;12.57;;;6.20;;
45114;SDS011;30877;43.706;10.780;2023-02-14T05:09:51;13.65;;;6.78;;
45114;SDS011;30877;43.706;10.780;2023-02-14T05:12:19;8.88;;;5.85;;
45114;SDS011;30877;43.706;10.780;2023-02-14T05:14:47;8.57;;;6.15;;
45114;SDS011;30877;43.706;10.780;2023-02-14T05:17:17;10.27;;;6.18;;
45114;SDS011;30877;43.706;10.780;2023-02-14T05:19:45;9.02;;;6.20;;
45114;SDS011;30877;43.706;10.780;2023-02-14T05:22:12;9.57;;;6.35;;
45114;SDS011;30877;43.706;10.780;2023-02-14T05:24:44;9.57;;;7.00;;
45114;SDS011;30877;43.706;10.780;2023-02-14T05:27:11;10.98;;;6.65;;
45114;SDS011;30877;43.706;10.780;2023-02-14T05:29:39;9.23;;;6.95;;
45114;SDS011;30877;43.706;10.780;2023-02-14T05:32:07;9.68;;;6.22;;
45114;SDS011;30877;43.706;10.780;2023-02-14T05:34:37;8.77;;;5.88;;
45114;SDS011;30877;43.706;10.780;2023-02-14T05:37:04;8.65;;;5.47;;
45114;SDS011;30877;43.706;10.780;2023-02-14T05:39:32;8.95;;;6.00;;
45114;SDS011;30877;43.706;10.780;2023-02-14T05:42:00;8.40;;;5.82;;
45114;SDS011;30877;43.706;10.780;2023-02-14T05:44:29;8.07;;;5.88;;
45114;SDS011;30877;43.706;10.780;2023-02-14T05:46:57;7.25;;;5.60;;
45114;SDS011;30877;43.706;10.780;2023-02-14T05:49:27;9.90;;;6.25;;
45114;SDS011;30877;43.706;10.780;2023-02-14T05:51:57;12.38;;;6.35;;
45114;SDS011;30877;43.706;10.780;2023-02-14T05:54:25;9.50;;;6.05;;
45114;SDS011;30877;43.706;10.780;2023-02-14T05:56:52;11.27;;;6.55;;
45114;SDS011;30877;43.706;10.780;2023-02-14T05:59:21;8.45;;;5.70;;
45114;SDS011;30877;43.706;10.780;2023-02-14T06:01:48;7.63;;;5.70;;
45114;SDS011;30877;43.706;10.780;2023-02-14T06:04:16;8.70;;;5.90;;
45114;SDS011;30877;43.706;10.780;2023-02-14T06:06:44;9.00;;;6.38;;
45114;SDS011;30877;43.706;10.780;2023-02-14T06:09:14;10.80;;;6.45;;
45114;SDS011;30877;43.706;10.780;2023-02-14T06:11:42;9.07;;;6.57;;
45114;SDS011;30877;43.706;10.780;2023-02-14T06:14:09;9.13;;;6.30;;
45114;SDS011;30877;43.706;10.780;2023-02-14T06:16:38;12.10;;;7.45;;
45114;SDS011;30877;43.706;10.780;2023-02-14T06:19:05;11.15;;;7.03;;
45114;SDS011;30877;43.706;10.780;2023-02-14T06:21:34;12.00;;;7.25;;
45114;SDS011;30877;43.706;10.780;2023-02-14T06:24:01;11.82;;;7.53;;
45114;SDS011;30877;43.706;10.780;2023-02-14T06:26:32;13.77;;;8.55;;
45114;SDS011;30877;43.706;10.780;2023-02-14T06:29:02;13.13;;;8.35;;
45114;SDS011;30877;43.706;10.780;2023-02-14T06:31:30;14.52;;;7.75;;
45114;SDS011;30877;43.706;10.780;2023-02-14T06:33:58;12.75;;;7.03;;
45114;SDS011;30877;43.706;10.780;2023-02-14T06:36:26;9.93;;;7.00;;
45114;SDS011;30877;43.706;10.780;2023-02-14T06:38:54;11.35;;;7.70;;
45114;SDS011;30877;43.706;10.780;2023-02-14T06:41:22;13.20;;;7.18;;
45114;SDS011;30877;43.706;10.780;2023-02-14T06:43:51;11.30;;;6.30;;
45114;SDS011;30877;43.706;10.780;2023-02-14T06:46:19;11.95;;;7.20;;
45114;SDS011;30877;43.706;10.780;2023-02-14T06:48:47;11.10;;;7.35;;
45114;SDS011;30877;43.706;10.780;2023-02-14T06:51:15;14.48;;;7.82;;
45114;SDS011;30877;43.706;10.780;2023-02-14T06:53:43;15.13;;;8.65;;
45114;SDS011;30877;43.706;10.780;2023-02-14T06:56:11;13.32;;;8.30;;
45114;SDS011;30877;43.706;10.780;2023-02-14T06:58:39;17.33;;;9.73;;
45114;SDS011;30877;43.706;10.780;2023-02-14T07:01:08;13.50;;;8.60;;
45114;SDS011;30877;43.706;10.780;2023-02-14T07:03:36;14.63;;;9.10;;
45114;SDS011;30877;43.706;10.780;2023-02-14T07:06:04;13.38;;;9.07;;
45114;SDS011;30877;43.706;10.780;2023-02-14T07:08:32;12.93;;;8.73;;
45114;SDS011;30877;43.706;10.780;2023-02-14T07:10:59;13.82;;;7.93;;
45114;SDS011;30877;43.706;10.780;2023-02-14T07:13:28;13.63;;;8.20;;
45114;SDS011;30877;43.706;10.780;2023-02-14T07:15:56;11.90;;;7.43;;
45114;SDS011;30877;43.706;10.780;2023-02-14T07:18:26;13.48;;;7.70;;
45114;SDS011;30877;43.706;10.780;2023-02-14T07:20:53;11.75;;;7.40;;
45114;SDS011;30877;43.706;10.780;2023-02-14T07:23:22;10.90;;;7.55;;
45114;SDS011;30877;43.706;10.780;2023-02-14T07:25:50;12.52;;;6.90;;
45114;SDS011;30877;43.706;10.780;2023-02-14T07:28:18;12.68;;;7.38;;
45114;SDS011;30877;43.706;10.780;2023-02-14T07:30:47;10.63;;;6.78;;
45114;SDS011;30877;43.706;10.780;2023-02-14T07:33:15;8.77;;;6.10;;
45114;SDS011;30877;43.706;10.780;2023-02-14T07:35:44;9.40;;;6.03;;
45114;SDS011;30877;43.706;10.780;2023-02-14T07:38:12;8.98;;;6.22;;
45114;SDS011;30877;43.706;10.780;2023-02-14T07:40:40;10.00;;;6.80;;
45114;SDS011;30877;43.706;10.780;2023-02-14T07:43:08;12.77;;;7.32;;
45114;SDS011;30877;43.706;10.780;2023-02-14T07:45:35;10.05;;;6.70;;
45114;SDS011;30877;43.706;10.780;2023-02-14T07:48:03;12.93;;;7.00;;
45114;SDS011;30877;43.706;10.780;2023-02-14T07:50:31;13.45;;;6.78;;
45114;SDS011;30877;43.706;10.780;2023-02-14T07:53:01;19.25;;;8.07;;
45114;SDS011;30877;43.706;10.780;2023-02-14T07:55:28;12.98;;;7.97;;
45114;SDS011;30877;43.706;10.780;2023-02-14T07:57:56;11.15;;;7.03;;
45114;SDS011;30877;43.706;10.780;2023-02-14T08:00:24;9.80;;;6.43;;
45114;SDS011;30877;43.706;10.780;2023-02-14T08:02:53;8.95;;;6.30;;
45114;SDS011;30877;43.706;10.780;2023-02-14T08:05:21;12.23;;;7.10;;
45114;SDS011;30877;43.706;10.780;2023-02-14T08:07:50;11.75;;;6.13;;
45114;SDS011;30877;43.706;10.780;2023-02-14T08:10:19;10.35;;;7.40;;
45114;SDS011;30877;43.706;10.780;2023-02-14T08:12:47;9.68;;;6.90;;
45114;SDS011;30877;43.706;10.780;2023-02-14T08:15:27;11.02;;;7.05;;
45114;SDS011;30877;43.706;10.780;2023-02-14T08:18:15;13.00;;;7.53;;
45114;SDS011;30877;43.706;10.780;2023-02-14T08:20:46;11.50;;;7.07;;
45114;SDS011;30877;43.706;10.780;2023-02-14T08:23:16;11.75;;;7.80;;
45114;SDS011;30877;43.706;10.780;2023-02-14T08:25:46;11.23;;;7.93;;
45114;SDS011;30877;43.706;10.780;2023-02-14T08:28:14;13.48;;;7.45;;
45114;SDS011;30877;43.706;10.780;2023-02-14T08:30:43;11.00;;;7.38;;
45114;SDS011;30877;43.706;10.780;2023-02-14T08:33:11;9.98;;;7.45;;
45114;SDS011;30877;43.706;10.780;2023-02-14T08:35:39;11.60;;;8.15;;
45114;SDS011;30877;43.706;10.780;2023-02-14T08:38:07;12.90;;;8.25;;
45114;SDS011;30877;43.706;10.780;2023-02-14T08:40:35;13.27;;;9.80;;
45114;SDS011;30877;43.706;10.780;2023-02-14T08:43:05;12.82;;;9.02;;
45114;SDS011;30877;43.706;10.780;2023-02-14T08:45:33;10.63;;;7.75;;
45114;SDS011;30877;43.706;10.780;2023-02-14T08:48:03;12.38;;;9.02;;
45114;SDS011;30877;43.706;10.780;2023-02-14T08:50:32;14.25;;;9.20;;
45114;SDS011;30877;43.706;10.780;2023-02-14T08:53:03;11.50;;;8.55;;
45114;SDS011;30877;43.706;10.780;2023-02-14T08:55:33;11.75;;;8.73;;
45114;SDS011;30877;43.706;10.780;2023-02-14T08:58:01;11.18;;;9.27;;
45114;SDS011;30877;43.706;10.780;2023-02-14T09:00:31;12.95;;;9.20;;
45114;SDS011;30877;43.706;10.780;2023-02-14T09:03:00;15.05;;;9.55;;
45114;SDS011;30877;43.706;10.780;2023-02-14T09:05:28;14.10;;;9.48;;
45114;SDS011;30877;43.706;10.780;2023-02-14T09:07:56;14.23;;;9.80;;
45114;SDS011;30877;43.706;10.780;2023-02-14T09:10:24;13.30;;;8.63;;
45114;SDS011;30877;43.706;10.780;2023-02-14T09:12:52;12.38;;;8.50;;
45114;SDS011;30877;43.706;10.780;2023-02-14T09:15:20;12.23;;;8.25;;
45114;SDS011;30877;43.706;10.780;2023-02-14T09:17:49;15.02;;;8.70;;
45114;SDS011;30877;43.706;10.780;2023-02-14T09:20:17;10.75;;;8.10;;
45114;SDS011;30877;43.706;10.780;2023-02-14T09:22:45;11.23;;;7.85;;
45114;SDS011;30877;43.706;10.780;2023-02-14T09:25:14;12.98;;;8.82;;
45114;SDS011;30877;43.706;10.780;2023-02-14T09:27:42;11.73;;;8.88;;
45114;SDS011;30877;43.706;10.780;2023-02-14T09:30:11;12.52;;;9.07;;
45114;SDS011;30877;43.706;10.780;2023-02-14T09:32:40;13.50;;;9.65;;
45114;SDS011;30877;43.706;10.780;2023-02-14T09:35:09;12.63;;;9.77;;
45114;SDS011;30877;43.706;10.780;2023-02-14T09:37:55;13.32;;;9.25;;
45114;SDS011;30877;43.706;10.780;2023-02-14T09:40:42;15.55;;;10.70;;
45114;SDS011;30877;43.706;10.780;2023-02-14T09:43:11;12.23;;;9.75;;
45114;SDS011;30877;43.706;10.780;2023-02-14T09:45:48;13.48;;;10.35;;
45114;SDS011;30877;43.706;10.780;2023-02-14T09:48:21;11.63;;;9.80;;
45114;SDS011;30877;43.706;10.780;2023-02-14T09:50:55;12.13;;;9.32;;
45114;SDS011;30877;43.706;10.780;2023-02-14T09:53:27;14.70;;;9.93;;
45114;SDS011;30877;43.706;10.780;2023-02-14T09:55:59;14.60;;;11.32;;
45114;SDS011;30877;43.706;10.780;2023-02-14T09:58:32;15.05;;;11.60;;
45114;SDS011;30877;43.706;10.780;2023-02-14T10:01:04;13.63;;;9.50;;
45114;SDS011;30877;43.706;10.780;2023-02-14T10:03:50;14.93;;;10.20;;
45114;SDS011;30877;43.706;10.780;2023-02-14T10:06:44;15.77;;;11.65;;
45114;SDS011;30877;43.706;10.780;2023-02-14T10:09:18;14.45;;;10.73;;
45114;SDS011;30877;43.706;10.780;2023-02-14T10:11:57;14.75;;;11.20;;
45114;SDS011;30877;43.706;10.780;2023-02-14T10:14:27;15.65;;;11.55;;
45114;SDS011;30877;43.706;10.780;2023-02-14T10:17:00;16.83;;;12.55;;
45114;SDS011;30877;43.706;10.780;2023-02-14T10:19:33;15.38;;;11.82;;
45114;SDS011;30877;43.706;10.780;2023-02-14T10:22:08;17.45;;;13.02;;
45114;SDS011;30877;43.706;10.780;2023-02-14T10:24:40;15.38;;;12.60;;
45114;SDS011;30877;43.706;10.780;2023-02-14T10:27:19;16.60;;;12.30;;
45114;SDS011;30877;43.706;10.780;2023-02-14T10:29:55;15.02;;;12.23;;
45114;SDS011;30877;43.706;10.780;2023-02-14T10:32:24;15.38;;;12.13;;
45114;SDS011;30877;43.706;10.780;2023-02-14T10:34:59;16.13;;;11.80;;
45114;SDS011;30877;43.706;10.780;2023-02-14T10:37:35;14.60;;;11.38;;
45114;SDS011;30877;43.706;10.780;2023-02-14T10:43:12;14.98;;;11.73;;
45114;SDS011;30877;43.706;10.780;2023-02-14T10:45:50;13.52;;;11.48;;
45114;SDS011;30877;43.706;10.780;2023-02-14T10:48:27;13.50;;;10.98;;
45114;SDS011;30877;43.706;10.780;2023-02-14T10:51:02;15.30;;;10.63;;
45114;SDS011;30877;43.706;10.780;2023-02-14T10:56:12;12.93;;;9.60;;
45114;SDS011;30877;43.706;10.780;2023-02-14T10:58:45;12.73;;;8.65;;
45114;SDS011;30877;43.706;10.780;2023-02-14T11:01:17;14.27;;;9.35;;
45114;SDS011;30877;43.706;10.780;2023-02-14T11:03:50;12.85;;;9.23;;
45114;SDS011;30877;43.706;10.780;2023-02-14T11:06:20;11.55;;;8.88;;
45114;SDS011;30877;43.706;10.780;2023-02-14T11:08:50;12.32;;;10.32;;
45114;SDS011;30877;43.706;10.780;2023-02-14T11:11:19;11.70;;;9.35;;
45114;SDS011;30877;43.706;10.780;2023-02-14T11:13:51;11.60;;;10.10;;
45114;SDS011;30877;43.706;10.780;2023-02-14T11:16:27;12.30;;;9.70;;
45114;SDS011;30877;43.706;10.780;2023-02-14T11:19:07;15.52;;;9.55;;
45114;SDS011;30877;43.706;10.780;2023-02-14T11:24:17;10.68;;;8.70;;
45114;SDS011;30877;43.706;10.780;2023-02-14T11:26:51;13.55;;;9.98;;
45114;SDS011;30877;43.706;10.780;2023-02-14T11:29:24;14.00;;;10.10;;
45114;SDS011;30877;43.706;10.780;2023-02-14T11:31:54;11.13;;;9.32;;
45114;SDS011;30877;43.706;10.780;2023-02-14T11:34:32;13.02;;;9.73;;
45114;SDS011;30877;43.706;10.780;2023-02-14T11:37:03;12.13;;;10.25;;
45114;SDS011;30877;43.706;10.780;2023-02-14T11:39:54;12.05;;;9.77;;
45114;SDS011;30877;43.706;10.780;2023-02-14T11:42:34;12.90;;;10.20;;
45114;SDS011;30877;43.706;10.780;2023-02-14T11:45:10;12.45;;;9.88;;
45114;SDS011;30877;43.706;10.780;2023-02-14T11:50:43;12.27;;;9.80;;
45114;SDS011;30877;43.706;10.780;2023-02-14T11:53:22;13.88;;;10.43;;
45114;SDS011;30877;43.706;10.780;2023-02-14T11:55:54;15.13;;;10.35;;
45114;SDS011;30877;43.706;10.780;2023-02-14T11:58:28;13.10;;;11.13;;
45114;SDS011;30877;43.706;10.780;2023-02-14T12:00:59;14.27;;;10.68;;
45114;SDS011;30877;43.706;10.780;2023-02-14T12:03:32;15.35;;;11.23;;
45114;SDS011;30877;43.706;10.780;2023-02-14T12:06:05;15.38;;;11.20;;
45114;SDS011;30877;43.706;10.780;2023-02-14T12:08:33;15.57;;;12.63;;
45114;SDS011;30877;43.706;10.780;2023-02-14T12:11:16;15.75;;;11.27;;
45114;SDS011;30877;43.706;10.780;2023-02-14T12:13:50;15.30;;;11.90;;
45114;SDS011;30877;43.706;10.780;2023-02-14T12:16:23;15.20;;;11.65;;
45114;SDS011;30877;43.706;10.780;2023-02-14T12:18:55;14.18;;;11.02;;
45114;SDS011;30877;43.706;10.780;2023-02-14T12:21:36;13.77;;;10.57;;
45114;SDS011;30877;43.706;10.780;2023-02-14T12:24:12;16.65;;;11.48;;
45114;SDS011;30877;43.706;10.780;2023-02-14T12:26:46;15.48;;;10.77;;
45114;SDS011;30877;43.706;10.780;2023-02-14T12:29:20;15.38;;;12.20;;
45114;SDS011;30877;43.706;10.780;2023-02-14T12:31:53;15.65;;;10.88;;
45114;SDS011;30877;43.706;10.780;2023-02-14T12:34:26;12.88;;;10.98;;
45114;SDS011;30877;43.706;10.780;2023-02-14T12:37:00;14.35;;;11.35;;
45114;SDS011;30877;43.706;10.780;2023-02-14T12:39:47;12.23;;;10.45;;
45114;SDS011;30877;43.706;10.780;2023-02-14T12:42:43;14.27;;;9.50;;
45114;SDS011;30877;43.706;10.780;2023-02-14T12:45:29;14.38;;;9.85;;
45114;SDS011;30877;43.706;10.780;2023-02-14T12:48:17;11.55;;;9.07;;
45114;SDS011;30877;43.706;10.780;2023-02-14T12:51:00;12.82;;;9.07;;
45114;SDS011;30877;43.706;10.780;2023-02-14T12:53:36;15.05;;;12.30;;
45114;SDS011;30877;43.706;10.780;2023-02-14T12:56:19;13.68;;;11.95;;
45114;SDS011;30877;43.706;10.780;2023-02-14T12:58:58;14.57;;;12.30;;
45114;SDS011;30877;43.706;10.780;2023-02-14T13:07:35;15.75;;;13.07;;
45114;SDS011;30877;43.706;10.780;2023-02-14T13:10:23;14.95;;;13.02;;
45114;SDS011;30877;43.706;10.780;2023-02-14T13:13:06;15.73;;;13.20;;
45114;SDS011;30877;43.706;10.780;2023-02-14T13:15:45;14.55;;;12.98;;
45114;SDS011;30877;43.706;10.780;2023-02-14T13:18:23;12.68;;;11.32;;
45114;SDS011;30877;43.706;10.780;2023-02-14T13:21:00;14.82;;;12.55;;
45114;SDS011;30877;43.706;10.780;2023-02-14T13:23:34;15.00;;;12.63;;
45114;SDS011;30877;43.706;10.780;2023-02-14T13:26:06;14.48;;;12.95;;
45114;SDS011;30877;43.706;10.780;2023-02-14T13:28:39;12.90;;;11.25;;
45114;SDS011;30877;43.706;10.780;2023-02-14T13:31:14;14.57;;;13.07;;
45114;SDS011;30877;43.706;10.780;2023-02-14T13:33:44;16.42;;;13.05;;
45114;SDS011;30877;43.706;10.780;2023-02-14T13:36:16;13.63;;;11.60;;
45114;SDS011;30877;43.706;10.780;2023-02-14T13:38:46;13.40;;;11.65;;
45114;SDS011;30877;43.706;10.780;2023-02-14T13:41:16;13.38;;;11.13;;
45114;SDS011;30877;43.706;10.780;2023-02-14T13:43:49;12.88;;;11.45;;
45114;SDS011;30877;43.706;10.780;2023-02-14T13:46:21;12.57;;;10.70;;
45114;SDS011;30877;43.706;10.780;2023-02-14T13:49:23;12.88;;;11.48;;
45114;SDS011;30877;43.706;10.780;2023-02-14T13:51:57;13.32;;;10.13;;
45114;SDS011;30877;43.706;10.780;2023-02-14T13:54:28;13.05;;;11.07;;
45114;SDS011;30877;43.706;10.780;2023-02-14T13:57:02;10.98;;;9.88;;
45114;SDS011;30877;43.706;10.780;2023-02-14T14:02:59;14.32;;;11.60;;
45114;SDS011;30877;43.706;10.780;2023-02-14T14:08:37;13.93;;;10.13;;
45114;SDS011;30877;43.706;10.780;2023-02-14T14:14:27;12.70;;;9.65;;
45114;SDS011;30877;43.706;10.780;2023-02-14T14:17:15;10.80;;;9.55;;
45114;SDS011;30877;43.706;10.780;2023-02-14T14:19:53;10.20;;;8.93;;
45114;SDS011;30877;43.706;10.780;2023-02-14T14:22:47;15.00;;;9.00;;
45114;SDS011;30877;43.706;10.780;2023-02-14T14:25:28;11.60;;;9.02;;
45114;SDS011;30877;43.706;10.780;2023-02-14T14:27:57;11.65;;;9.15;;
45114;SDS011;30877;43.706;10.780;2023-02-14T14:30:27;13.65;;;9.50;;
45114;SDS011;30877;43.706;10.780;2023-02-14T14:33:11;9.90;;;8.90;;
45114;SDS011;30877;43.706;10.780;2023-02-14T14:35:50;9.95;;;8.43;;
45114;SDS011;30877;43.706;10.780;2023-02-14T14:38:19;11.27;;;8.55;;
45114;SDS011;30877;43.706;10.780;2023-02-14T14:40:48;10.20;;;8.00;;
45114;SDS011;30877;43.706;10.780;2023-02-14T14:43:20;33.17;;;27.90;;
45114;SDS011;30877;43.706;10.780;2023-02-14T14:45:52;15.93;;;13.98;;
45114;SDS011;30877;43.706;10.780;2023-02-14T14:48:25;11.20;;;8.95;;
45114;SDS011;30877;43.706;10.780;2023-02-14T14:50:58;15.70;;;9.30;;
45114;SDS011;30877;43.706;10.780;2023-02-14T14:53:27;13.57;;;10.15;;
45114;SDS011;30877;43.706;10.780;2023-02-14T14:56:01;10.02;;;8.73;;
45114;SDS011;30877;43.706;10.780;2023-02-14T14:58:33;12.02;;;8.75;;
45114;SDS011;30877;43.706;10.780;2023-02-14T15:01:03;10.30;;;8.75;;
45114;SDS011;30877;43.706;10.780;2023-02-14T15:03:33;18.58;;;15.32;;
45114;SDS011;30877;43.706;10.780;2023-02-14T15:06:03;11.98;;;9.13;;
45114;SDS011;30877;43.706;10.780;2023-02-14T15:08:34;13.27;;;8.57;;
45114;SDS011;30877;43.706;10.780;2023-02-14T15:11:03;11.10;;;7.95;;
45114;SDS011;30877;43.706;10.780;2023-02-14T15:13:36;11.77;;;7.38;;
45114;SDS011;30877;43.706;10.780;2023-02-14T15:16:17;9.40;;;7.65;;
45114;SDS011;30877;43.706;10.780;2023-02-14T15:18:47;9.20;;;8.10;;
45114;SDS011;30877;43.706;10.780;2023-02-14T15:21:17;19.90;;;14.00;;